UAL525 KSAN-KSFO
Flight info
| Callsign | UAL525 |
|---|---|
| Flight time | N/A |
| Altitude | 36000 |
| Route | PADRZ2 IKAYE RIZIN SPLNT STOKD SERFR SERFR4 |
| Aircraft | B739/M-SDE2E3FGHIRWXY/LB1 |
Departure
| Time | 2026-04-25 16:02 |
|---|---|
| Airport | San Diego International Airport (KSAN) |
Arrival
| Time | N/A |
|---|---|
| Airport | San Francisco International Airport (KSFO) |
| Time | Latitude | Longitude | Altitude | Speed | Heading |
|---|---|---|---|---|---|
| 2026-04-25 15:26 | 32.73344 | -117.20466 | 24 ft | 0 kts | 102° |
| 2026-04-25 15:42 | 32.73344 | -117.20468 | 24 ft | 3 kts | 102° |
| 2026-04-25 15:42 | 32.73348 | -117.20490 | 28 ft | 3 kts | 102° |
| 2026-04-25 15:43 | 32.73352 | -117.20512 | 29 ft | 3 kts | 102° |
| 2026-04-25 15:43 | 32.73356 | -117.20534 | 26 ft | 3 kts | 102° |
| 2026-04-25 15:43 | 32.73359 | -117.20557 | 27 ft | 3 kts | 102° |
| 2026-04-25 15:43 | 32.73360 | -117.20560 | 27 ft | 0 kts | 102° |
| 2026-04-25 15:44 | 32.73360 | -117.20561 | 27 ft | 0 kts | 102° |
| 2026-04-25 15:47 | 32.73369 | -117.20549 | 24 ft | 5 kts | 40° |
| 2026-04-25 15:48 | 32.73424 | -117.20549 | 21 ft | 14 kts | 353° |
| 2026-04-25 15:48 | 32.73528 | -117.20500 | 18 ft | 18 kts | 57° |
| 2026-04-25 15:48 | 32.73586 | -117.20382 | 19 ft | 16 kts | 92° |
| 2026-04-25 15:48 | 32.73564 | -117.20254 | 23 ft | 16 kts | 103° |
| 2026-04-25 15:49 | 32.73535 | -117.20133 | 24 ft | 15 kts | 106° |
| 2026-04-25 15:49 | 32.73504 | -117.20005 | 29 ft | 17 kts | 105° |
| 2026-04-25 15:49 | 32.73473 | -117.19874 | 31 ft | 16 kts | 106° |
| 2026-04-25 15:49 | 32.73438 | -117.19731 | 29 ft | 20 kts | 106° |
| 2026-04-25 15:50 | 32.73396 | -117.19560 | 29 ft | 23 kts | 106° |
| 2026-04-25 15:50 | 32.73347 | -117.19358 | 24 ft | 28 kts | 105° |
| 2026-04-25 15:50 | 32.73292 | -117.19127 | 24 ft | 28 kts | 106° |
| 2026-04-25 15:50 | 32.73240 | -117.18914 | 27 ft | 26 kts | 106° |
| 2026-04-25 15:51 | 32.73192 | -117.18714 | 29 ft | 24 kts | 105° |
| 2026-04-25 15:51 | 32.73162 | -117.18590 | 30 ft | 23 kts | 105° |
| 2026-04-25 15:51 | 32.73103 | -117.18350 | 28 ft | 22 kts | 106° |
| 2026-04-25 15:51 | 32.73063 | -117.18187 | 27 ft | 9 kts | 106° |
| 2026-04-25 15:52 | 32.73060 | -117.18135 | 23 ft | 1 kts | 64° |
| 2026-04-25 15:52 | 32.73062 | -117.18134 | 23 ft | 0 kts | 41° |
| 2026-04-25 15:54 | 32.73065 | -117.18130 | 25 ft | 0 kts | 44° |
| 2026-04-25 15:54 | 32.73055 | -117.18142 | 23 ft | 4 kts | 44° |
| 2026-04-25 15:54 | 32.73054 | -117.18143 | 23 ft | 1 kts | 44° |
| 2026-04-25 15:54 | 32.73052 | -117.18117 | 23 ft | 10 kts | 107° |
| 2026-04-25 15:55 | 32.73027 | -117.18034 | 23 ft | 11 kts | 107° |
| 2026-04-25 15:55 | 32.73007 | -117.17949 | 24 ft | 11 kts | 107° |
| 2026-04-25 15:55 | 32.72981 | -117.17847 | 23 ft | 15 kts | 108° |
| 2026-04-25 15:55 | 32.72950 | -117.17732 | 22 ft | 10 kts | 103° |
| 2026-04-25 15:56 | 32.72953 | -117.17684 | 22 ft | 0 kts | 75° |
| 2026-04-25 16:00 | 32.72954 | -117.17682 | 22 ft | 2 kts | 75° |
| 2026-04-25 16:00 | 32.72980 | -117.17641 | 25 ft | 5 kts | 31° |
| 2026-04-25 16:00 | 32.73008 | -117.17621 | 24 ft | 5 kts | 30° |
| 2026-04-25 16:01 | 32.73021 | -117.17617 | 26 ft | 0 kts | 13° |
| 2026-04-25 16:01 | 32.73028 | -117.17630 | 25 ft | 5 kts | 297° |
| 2026-04-25 16:01 | 32.73050 | -117.17726 | 23 ft | 35 kts | 283° |
| 2026-04-25 16:01 | 32.73206 | -117.18370 | 29 ft | 123 kts | 285° |
| 2026-04-25 16:02 | 32.73522 | -117.19524 | 407 ft | 154 kts | 284° |
| 2026-04-25 16:02 | 32.73802 | -117.20784 | 1313 ft | 162 kts | 278° |
| 2026-04-25 16:02 | 32.74100 | -117.22119 | 2066 ft | 183 kts | 286° |
| 2026-04-25 16:02 | 32.74791 | -117.23484 | 2498 ft | 206 kts | 304° |
| 2026-04-25 16:03 | 32.75719 | -117.24885 | 2875 ft | 227 kts | 304° |
| 2026-04-25 16:03 | 32.76653 | -117.26418 | 3566 ft | 231 kts | 297° |
| 2026-04-25 16:03 | 32.77539 | -117.28115 | 4054 ft | 253 kts | 301° |
| 2026-04-25 16:03 | 32.78577 | -117.29844 | 4879 ft | 261 kts | 304° |
| 2026-04-25 16:04 | 32.79657 | -117.31592 | 5851 ft | 261 kts | 305° |
| 2026-04-25 16:04 | 32.80778 | -117.33303 | 6835 ft | 263 kts | 306° |
| 2026-04-25 16:04 | 32.81923 | -117.35019 | 7719 ft | 268 kts | 305° |
| 2026-04-25 16:04 | 32.83080 | -117.36765 | 8655 ft | 269 kts | 304° |
| 2026-04-25 16:05 | 32.84235 | -117.38524 | 9586 ft | 271 kts | 302° |
| 2026-04-25 16:05 | 32.85399 | -117.40309 | 10383 ft | 277 kts | 302° |
| 2026-04-25 16:05 | 32.87956 | -117.44271 | 10947 ft | 322 kts | 303° |
| 2026-04-25 16:06 | 32.89340 | -117.46407 | 11614 ft | 329 kts | 303° |
| 2026-04-25 16:06 | 32.90719 | -117.48543 | 12382 ft | 332 kts | 302° |
| 2026-04-25 16:06 | 32.92132 | -117.50738 | 13168 ft | 335 kts | 302° |
| 2026-04-25 16:06 | 32.93559 | -117.52957 | 13930 ft | 339 kts | 302° |
| 2026-04-25 16:07 | 32.94997 | -117.55200 | 14622 ft | 342 kts | 302° |
| 2026-04-25 16:07 | 32.95485 | -117.55961 | 14838 ft | 343 kts | 302° |
| 2026-04-25 16:07 | 32.97915 | -117.59748 | 16016 ft | 349 kts | 302° |
| 2026-04-25 16:07 | 32.99396 | -117.62057 | 16701 ft | 352 kts | 302° |
| 2026-04-25 16:08 | 33.00887 | -117.64386 | 17390 ft | 356 kts | 302° |
| 2026-04-25 16:08 | 33.02401 | -117.66751 | 18039 ft | 360 kts | 302° |